sensor_id;sensor_type;location;lat;lon;timestamp;pressure;altitude;pressure_sealevel;temperature;humidity
73332;BME280;61560;33.718;73.040;2022-08-23T00:00:48;93863.19;;;28.87;61.99
73332;BME280;61560;33.718;73.040;2022-08-23T00:03:16;93852.41;;;28.78;61.93
73332;BME280;61560;33.718;73.040;2022-08-23T00:05:42;93864.81;;;28.75;62.12
73332;BME280;61560;33.718;73.040;2022-08-23T00:08:09;93856.34;;;28.75;62.42
73332;BME280;61560;33.718;73.040;2022-08-23T00:10:36;93851.47;;;28.75;62.88
73332;BME280;61560;33.718;73.040;2022-08-23T00:13:02;93859.19;;;28.75;62.58
73332;BME280;61560;33.718;73.040;2022-08-23T00:15:29;93859.19;;;28.75;63.18
73332;BME280;61560;33.718;73.040;2022-08-23T00:17:55;93864.41;;;28.71;63.35
73332;BME280;61560;33.718;73.040;2022-08-23T00:20:22;93863.81;;;28.65;63.18
73332;BME280;61560;33.718;73.040;2022-08-23T00:22:48;93876.78;;;28.68;62.96
73332;BME280;61560;33.718;73.040;2022-08-23T00:25:17;93879.41;;;28.66;63.17
73332;BME280;61560;33.718;73.040;2022-08-23T00:27:43;93873.03;;;28.65;63.47
73332;BME280;61560;33.718;73.040;2022-08-23T00:30:11;93885.03;;;28.66;63.17
73332;BME280;61560;33.718;73.040;2022-08-23T00:32:40;93885.59;;;28.64;63.87
73332;BME280;61560;33.718;73.040;2022-08-23T00:35:08;93890.69;;;28.66;63.01
73332;BME280;61560;33.718;73.040;2022-08-23T00:37:36;93890.69;;;28.66;63.28
73332;BME280;61560;33.718;73.040;2022-08-23T00:40:05;93902.50;;;28.64;62.82
73332;BME280;61560;33.718;73.040;2022-08-23T00:48:22;93900.84;;;28.69;63.25
73332;BME280;61560;33.718;73.040;2022-08-23T00:53:31;93911.00;;;28.72;63.83
73332;BME280;61560;33.718;73.040;2022-08-23T00:56:02;93905.94;;;28.70;63.40
73332;BME280;61560;33.718;73.040;2022-08-23T00:58:29;93920.06;;;28.78;64.08
73332;BME280;61560;33.718;73.040;2022-08-23T01:00:57;93924.41;;;28.79;64.29
73332;BME280;61560;33.718;73.040;2022-08-23T02:05:29;93968.31;;;28.54;68.03
73332;BME280;61560;33.718;73.040;2022-08-23T02:07:56;93973.09;;;28.59;68.80
73332;BME280;61560;33.718;73.040;2022-08-23T02:10:43;93972.19;;;28.64;68.06
73332;BME280;61560;33.718;73.040;2022-08-23T02:13:09;93975.78;;;28.64;68.07
73332;BME280;61560;33.718;73.040;2022-08-23T02:15:36;93976.03;;;28.74;68.24
73332;BME280;61560;33.718;73.040;2022-08-23T02:18:04;93980.03;;;28.78;68.62
73332;BME280;61560;33.718;73.040;2022-08-23T02:20:31;93978.38;;;28.83;68.64
73332;BME280;61560;33.718;73.040;2022-08-23T02:22:58;93976.38;;;28.91;68.04
73332;BME280;61560;33.718;73.040;2022-08-23T02:25:25;93981.13;;;28.96;68.33
73332;BME280;61560;33.718;73.040;2022-08-23T02:27:51;93987.75;;;29.06;67.69
73332;BME280;61560;33.718;73.040;2022-08-23T02:30:19;93989.34;;;29.15;67.68
73332;BME280;61560;33.718;73.040;2022-08-23T02:32:46;93994.28;;;29.22;67.34
73332;BME280;61560;33.718;73.040;2022-08-23T02:35:12;93990.00;;;29.28;67.14
73332;BME280;61560;33.718;73.040;2022-08-23T02:37:39;93990.44;;;29.40;67.34
73332;BME280;61560;33.718;73.040;2022-08-23T02:40:06;93992.94;;;29.51;66.76
73332;BME280;61560;33.718;73.040;2022-08-23T02:42:33;93998.81;;;29.60;64.46
73332;BME280;61560;33.718;73.040;2022-08-23T02:45:00;94001.34;;;29.71;63.61
73332;BME280;61560;33.718;73.040;2022-08-23T02:47:28;94008.00;;;29.81;62.80
73332;BME280;61560;33.718;73.040;2022-08-23T02:50:08;94008.41;;;29.93;62.20
73332;BME280;61560;33.718;73.040;2022-08-23T02:52:35;94008.06;;;30.04;61.50
73332;BME280;61560;33.718;73.040;2022-08-23T02:55:03;94014.50;;;30.12;61.48
73332;BME280;61560;33.718;73.040;2022-08-23T02:57:30;94019.25;;;30.25;59.85
73332;BME280;61560;33.718;73.040;2022-08-23T02:59:57;94024.94;;;30.32;59.60
73332;BME280;61560;33.718;73.040;2022-08-23T03:02:24;94028.38;;;30.46;59.44
73332;BME280;61560;33.718;73.040;2022-08-23T03:04:50;94033.84;;;30.51;59.63
73332;BME280;61560;33.718;73.040;2022-08-23T03:07:17;94029.72;;;30.60;59.89
73332;BME280;61560;33.718;73.040;2022-08-23T03:09:44;94033.50;;;30.70;59.78
73332;BME280;61560;33.718;73.040;2022-08-23T03:12:11;94034.28;;;30.78;60.04
73332;BME280;61560;33.718;73.040;2022-08-23T03:14:42;94038.84;;;30.89;59.65
73332;BME280;61560;33.718;73.040;2022-08-23T03:17:10;94041.47;;;31.02;58.47
73332;BME280;61560;33.718;73.040;2022-08-23T03:19:37;94046.94;;;31.15;58.36
73332;BME280;61560;33.718;73.040;2022-08-23T03:22:04;94049.75;;;31.22;57.57
73332;BME280;61560;33.718;73.040;2022-08-23T03:24:30;94052.97;;;31.26;57.70
73332;BME280;61560;33.718;73.040;2022-08-23T03:26:58;94055.63;;;31.39;57.99
73332;BME280;61560;33.718;73.040;2022-08-23T03:29:25;94059.78;;;31.54;57.20
73332;BME280;61560;33.718;73.040;2022-08-23T03:32:01;94065.03;;;31.57;56.46
73332;BME280;61560;33.718;73.040;2022-08-23T03:34:33;94063.13;;;31.75;56.43
73332;BME280;61560;33.718;73.040;2022-08-23T03:37:00;94070.63;;;32.02;55.94
73332;BME280;61560;33.718;73.040;2022-08-23T03:39:26;94066.03;;;32.14;54.61
73332;BME280;61560;33.718;73.040;2022-08-23T03:41:56;94065.94;;;32.45;54.84
73332;BME280;61560;33.718;73.040;2022-08-23T03:44:25;94082.81;;;32.75;54.83
73332;BME280;61560;33.718;73.040;2022-08-23T03:46:53;94078.88;;;33.02;54.15
73332;BME280;61560;33.718;73.040;2022-08-23T03:49:20;94073.31;;;33.37;53.29
73332;BME280;61560;33.718;73.040;2022-08-23T03:51:51;94072.94;;;34.16;51.71
73332;BME280;61560;33.718;73.040;2022-08-23T03:54:18;94073.53;;;34.76;49.37
73332;BME280;61560;33.718;73.040;2022-08-23T03:56:55;94065.38;;;35.16;48.32
73332;BME280;61560;33.718;73.040;2022-08-23T03:59:29;94076.13;;;35.44;47.98
73332;BME280;61560;33.718;73.040;2022-08-23T04:01:56;94069.75;;;35.63;47.29
73332;BME280;61560;33.718;73.040;2022-08-23T04:04:23;94079.75;;;36.38;45.94
73332;BME280;61560;33.718;73.040;2022-08-23T04:07:17;94073.94;;;37.24;43.71
73332;BME280;61560;33.718;73.040;2022-08-23T04:09:47;94070.50;;;37.56;42.84
73332;BME280;61560;33.718;73.040;2022-08-23T04:12:14;94076.69;;;38.47;40.82
73332;BME280;61560;33.718;73.040;2022-08-23T04:14:41;94063.91;;;39.37;39.26
73332;BME280;61560;33.718;73.040;2022-08-23T04:17:07;94070.69;;;40.36;36.89
73332;BME280;61560;33.718;73.040;2022-08-23T04:19:35;94072.38;;;41.53;34.95
73332;BME280;61560;33.718;73.040;2022-08-23T04:22:03;94065.59;;;42.55;33.24
73332;BME280;61560;33.718;73.040;2022-08-23T04:24:38;94065.16;;;42.47;33.45
73332;BME280;61560;33.718;73.040;2022-08-23T04:27:05;94071.59;;;42.05;33.75
73332;BME280;61560;33.718;73.040;2022-08-23T04:29:32;94070.59;;;42.55;33.05
73332;BME280;61560;33.718;73.040;2022-08-23T04:32:00;94061.19;;;42.97;31.90
73332;BME280;61560;33.718;73.040;2022-08-23T04:34:27;94053.28;;;43.27;31.40
73332;BME280;61560;33.718;73.040;2022-08-23T04:36:54;94055.78;;;43.81;30.81
73332;BME280;61560;33.718;73.040;2022-08-23T04:39:20;94059.63;;;44.34;29.43
73332;BME280;61560;33.718;73.040;2022-08-23T04:41:47;94056.88;;;44.87;28.78
73332;BME280;61560;33.718;73.040;2022-08-23T04:44:34;94053.78;;;45.73;27.72
73332;BME280;61560;33.718;73.040;2022-08-23T04:47:02;94059.81;;;45.99;27.41
73332;BME280;61560;33.718;73.040;2022-08-23T04:49:29;94064.28;;;46.02;27.27
73332;BME280;61560;33.718;73.040;2022-08-23T04:51:56;94071.50;;;46.20;26.14
73332;BME280;61560;33.718;73.040;2022-08-23T04:54:23;94063.69;;;46.45;25.73
73332;BME280;61560;33.718;73.040;2022-08-23T04:57:21;94065.06;;;46.85;25.64
73332;BME280;61560;33.718;73.040;2022-08-23T04:59:48;94069.09;;;46.97;25.05
73332;BME280;61560;33.718;73.040;2022-08-23T05:02:15;94061.16;;;47.20;24.73
73332;BME280;61560;33.718;73.040;2022-08-23T05:04:42;94060.69;;;47.06;24.61
73332;BME280;61560;33.718;73.040;2022-08-23T05:07:10;94065.09;;;47.52;24.04
73332;BME280;61560;33.718;73.040;2022-08-23T05:09:36;94052.56;;;47.93;22.91
73332;BME280;61560;33.718;73.040;2022-08-23T05:12:03;94047.69;;;47.52;24.12
73332;BME280;61560;33.718;73.040;2022-08-23T05:14:32;94058.97;;;47.65;24.27
73332;BME280;61560;33.718;73.040;2022-08-23T05:16:58;94049.06;;;47.72;23.27
73332;BME280;61560;33.718;73.040;2022-08-23T05:19:26;94048.72;;;47.62;23.50
73332;BME280;61560;33.718;73.040;2022-08-23T05:21:52;94041.53;;;47.89;23.34
73332;BME280;61560;33.718;73.040;2022-08-23T05:24:21;94044.03;;;47.75;23.59
73332;BME280;61560;33.718;73.040;2022-08-23T05:26:47;94039.41;;;47.66;23.50
73332;BME280;61560;33.718;73.040;2022-08-23T05:29:14;94044.59;;;47.46;23.88
73332;BME280;61560;33.718;73.040;2022-08-23T05:31:48;94048.16;;;47.44;24.01
73332;BME280;61560;33.718;73.040;2022-08-23T05:34:17;94047.94;;;47.60;23.73
73332;BME280;61560;33.718;73.040;2022-08-23T05:36:50;94044.63;;;47.71;23.56
73332;BME280;61560;33.718;73.040;2022-08-23T05:39:19;94045.16;;;47.64;24.00
73332;BME280;61560;33.718;73.040;2022-08-23T05:41:48;94040.75;;;47.63;24.55
73332;BME280;61560;33.718;73.040;2022-08-23T05:44:27;94041.03;;;47.26;24.39
73332;BME280;61560;33.718;73.040;2022-08-23T05:46:55;94034.78;;;47.12;23.79
73332;BME280;61560;33.718;73.040;2022-08-23T05:49:30;94034.69;;;47.31;24.09
73332;BME280;61560;33.718;73.040;2022-08-23T05:51:58;94033.53;;;47.40;23.43
73332;BME280;61560;33.718;73.040;2022-08-23T05:54:29;94037.31;;;47.45;23.42
73332;BME280;61560;33.718;73.040;2022-08-23T05:57:36;94029.03;;;47.14;23.68
73332;BME280;61560;33.718;73.040;2022-08-23T06:00:09;94021.59;;;47.30;24.00
73332;BME280;61560;33.718;73.040;2022-08-23T06:02:49;94031.19;;;47.13;24.20
73332;BME280;61560;33.718;73.040;2022-08-23T06:05:18;94026.31;;;46.13;24.92
73332;BME280;61560;33.718;73.040;2022-08-23T06:07:47;94027.59;;;45.52;26.63
73332;BME280;61560;33.718;73.040;2022-08-23T06:10:14;94019.63;;;45.32;26.31
73332;BME280;61560;33.718;73.040;2022-08-23T06:12:44;94019.34;;;44.38;27.80
73332;BME280;61560;33.718;73.040;2022-08-23T06:15:13;94019.97;;;43.70;28.97
73332;BME280;61560;33.718;73.040;2022-08-23T06:17:40;94013.53;;;43.41;29.87
73332;BME280;61560;33.718;73.040;2022-08-23T06:20:08;94012.28;;;42.99;30.65
73332;BME280;61560;33.718;73.040;2022-08-23T06:22:56;94006.66;;;42.58;30.25
73332;BME280;61560;33.718;73.040;2022-08-23T06:25:23;94007.56;;;42.33;30.33
73332;BME280;61560;33.718;73.040;2022-08-23T06:28:09;94015.06;;;41.98;31.09
73332;BME280;61560;33.718;73.040;2022-08-23T06:30:38;94009.25;;;41.69;31.49
73332;BME280;61560;33.718;73.040;2022-08-23T06:33:22;94013.28;;;41.64;32.01
73332;BME280;61560;33.718;73.040;2022-08-23T06:36:18;94009.00;;;41.51;32.25
73332;BME280;61560;33.718;73.040;2022-08-23T06:39:19;94007.94;;;41.06;32.49
73332;BME280;61560;33.718;73.040;2022-08-23T06:42:11;94004.66;;;40.72;33.25
73332;BME280;61560;33.718;73.040;2022-08-23T06:44:44;94004.25;;;40.78;33.60
73332;BME280;61560;33.718;73.040;2022-08-23T06:47:25;93994.31;;;40.67;33.61
73332;BME280;61560;33.718;73.040;2022-08-23T06:49:52;93999.59;;;40.59;33.68
73332;BME280;61560;33.718;73.040;2022-08-23T06:52:26;93997.13;;;40.54;33.78
73332;BME280;61560;33.718;73.040;2022-08-23T06:54:57;93986.97;;;40.39;33.60
73332;BME280;61560;33.718;73.040;2022-08-23T06:57:48;93995.16;;;40.08;34.62
73332;BME280;61560;33.718;73.040;2022-08-23T07:00:39;93988.56;;;39.94;34.63
73332;BME280;61560;33.718;73.040;2022-08-23T07:03:27;93980.72;;;39.94;35.13
73332;BME280;61560;33.718;73.040;2022-08-23T07:06:28;93980.09;;;39.96;34.76
73332;BME280;61560;33.718;73.040;2022-08-23T07:08:56;93975.75;;;39.83;36.04
73332;BME280;61560;33.718;73.040;2022-08-23T07:11:25;93973.53;;;39.82;36.00
73332;BME280;61560;33.718;73.040;2022-08-23T07:13:52;93973.16;;;39.76;35.89
73332;BME280;61560;33.718;73.040;2022-08-23T07:16:19;93970.31;;;39.76;36.60
73332;BME280;61560;33.718;73.040;2022-08-23T07:18:46;93971.31;;;39.69;36.61
73332;BME280;61560;33.718;73.040;2022-08-23T07:21:15;93964.72;;;39.55;37.53
73332;BME280;61560;33.718;73.040;2022-08-23T07:23:43;93969.34;;;39.37;36.19
73332;BME280;61560;33.718;73.040;2022-08-23T07:26:12;93964.72;;;39.20;36.72
73332;BME280;61560;33.718;73.040;2022-08-23T07:28:40;93956.97;;;38.99;36.95
73332;BME280;61560;33.718;73.040;2022-08-23T07:31:23;93962.44;;;38.84;38.34
73332;BME280;61560;33.718;73.040;2022-08-23T07:33:54;93950.22;;;38.72;38.47
73332;BME280;61560;33.718;73.040;2022-08-23T07:36:23;93943.75;;;38.71;37.95
73332;BME280;61560;33.718;73.040;2022-08-23T07:38:52;93942.25;;;38.70;37.90
73332;BME280;61560;33.718;73.040;2022-08-23T07:41:19;93948.94;;;38.63;39.03
73332;BME280;61560;33.718;73.040;2022-08-23T07:43:48;93942.38;;;38.72;38.25
73332;BME280;61560;33.718;73.040;2022-08-23T07:46:15;93932.06;;;38.90;38.37
73332;BME280;61560;33.718;73.040;2022-08-23T07:48:42;93934.66;;;38.86;37.35
73332;BME280;61560;33.718;73.040;2022-08-23T07:51:13;93925.94;;;38.84;37.74
73332;BME280;61560;33.718;73.040;2022-08-23T07:53:40;93932.19;;;38.81;37.67
73332;BME280;61560;33.718;73.040;2022-08-23T07:56:09;93935.50;;;38.66;37.91
73332;BME280;61560;33.718;73.040;2022-08-23T07:58:54;93924.03;;;38.66;37.53
73332;BME280;61560;33.718;73.040;2022-08-23T08:01:41;93927.81;;;38.68;38.17
73332;BME280;61560;33.718;73.040;2022-08-23T08:04:09;93926.66;;;38.62;38.11
73332;BME280;61560;33.718;73.040;2022-08-23T08:06:46;93918.06;;;38.62;38.39
73332;BME280;61560;33.718;73.040;2022-08-23T08:09:17;93917.38;;;38.73;38.15
73332;BME280;61560;33.718;73.040;2022-08-23T08:11:47;93916.88;;;38.76;37.45
73332;BME280;61560;33.718;73.040;2022-08-23T08:14:16;93915.81;;;38.48;37.78
73332;BME280;61560;33.718;73.040;2022-08-23T08:16:51;93915.56;;;38.44;38.63
73332;BME280;61560;33.718;73.040;2022-08-23T08:19:36;93903.72;;;38.38;38.05
73332;BME280;61560;33.718;73.040;2022-08-23T08:22:21;93898.97;;;38.31;38.27
73332;BME280;61560;33.718;73.040;2022-08-23T08:25:08;93898.38;;;38.44;38.25
73332;BME280;61560;33.718;73.040;2022-08-23T08:27:38;93895.16;;;38.50;37.56
73332;BME280;61560;33.718;73.040;2022-08-23T08:30:07;93885.94;;;38.51;38.45
73332;BME280;61560;33.718;73.040;2022-08-23T08:32:35;93878.59;;;38.48;38.13
73332;BME280;61560;33.718;73.040;2022-08-23T08:35:03;93882.06;;;38.47;37.43
73332;BME280;61560;33.718;73.040;2022-08-23T08:37:30;93878.47;;;38.46;37.39
73332;BME280;61560;33.718;73.040;2022-08-23T08:39:58;93882.69;;;38.45;37.52
73332;BME280;61560;33.718;73.040;2022-08-23T08:45:43;93877.81;;;38.36;37.33
73332;BME280;61560;33.718;73.040;2022-08-23T08:48:14;93887.78;;;38.35;38.02
73332;BME280;61560;33.718;73.040;2022-08-23T08:50:56;93875.06;;;38.27;38.38
73332;BME280;61560;33.718;73.040;2022-08-23T08:53:36;93884.31;;;38.37;38.05
73332;BME280;61560;33.718;73.040;2022-08-23T08:56:19;93875.19;;;38.29;38.54
73332;BME280;61560;33.718;73.040;2022-08-23T08:58:57;93871.19;;;38.22;38.62
73332;BME280;61560;33.718;73.040;2022-08-23T09:01:27;93873.06;;;38.18;38.76
73332;BME280;61560;33.718;73.040;2022-08-23T09:03:55;93864.56;;;38.08;38.37
73332;BME280;61560;33.718;73.040;2022-08-23T09:06:35;93861.69;;;38.08;38.00
73332;BME280;61560;33.718;73.040;2022-08-23T09:18:02;93854.94;;;37.92;38.84
73332;BME280;61560;33.718;73.040;2022-08-23T09:20:32;93854.91;;;37.81;38.23
73332;BME280;61560;33.718;73.040;2022-08-23T09:28:18;93845.72;;;37.61;38.89
73332;BME280;61560;33.718;73.040;2022-08-23T09:33:18;93835.56;;;37.69;38.78
73332;BME280;61560;33.718;73.040;2022-08-23T09:38:35;93823.13;;;37.65;38.19
73332;BME280;61560;33.718;73.040;2022-08-23T09:41:16;93827.63;;;37.68;37.80
73332;BME280;61560;33.718;73.040;2022-08-23T09:43:49;93828.84;;;37.65;37.67
73332;BME280;61560;33.718;73.040;2022-08-23T09:46:27;93831.44;;;37.61;37.42
73332;BME280;61560;33.718;73.040;2022-08-23T09:48:57;93820.00;;;37.61;37.29
73332;BME280;61560;33.718;73.040;2022-08-23T09:51:34;93820.75;;;37.61;37.72
73332;BME280;61560;33.718;73.040;2022-08-23T09:56:40;93814.50;;;37.53;37.19
73332;BME280;61560;33.718;73.040;2022-08-23T10:01:57;93808.00;;;37.41;37.33
73332;BME280;61560;33.718;73.040;2022-08-23T10:04:44;93816.03;;;37.33;36.33
73332;BME280;61560;33.718;73.040;2022-08-23T10:07:41;93804.13;;;37.37;36.88
73332;BME280;61560;33.718;73.040;2022-08-23T10:10:26;93804.13;;;37.37;37.43
73332;BME280;61560;33.718;73.040;2022-08-23T10:12:58;93800.50;;;37.36;37.40
73332;BME280;61560;33.718;73.040;2022-08-23T10:21:22;93787.66;;;37.26;36.01
73332;BME280;61560;33.718;73.040;2022-08-23T10:24:08;93780.31;;;37.23;36.59
73332;BME280;61560;33.718;73.040;2022-08-23T10:27:09;93786.91;;;37.25;37.87
73332;BME280;61560;33.718;73.040;2022-08-23T10:40:45;93768.09;;;37.11;38.42
73332;BME280;61560;33.718;73.040;2022-08-23T10:45:58;93769.66;;;37.02;38.05
73332;BME280;61560;33.718;73.040;2022-08-23T10:48:50;93766.66;;;37.00;38.59
73332;BME280;61560;33.718;73.040;2022-08-23T10:51:41;93767.34;;;36.89;38.55
73332;BME280;61560;33.718;73.040;2022-08-23T10:54:15;93767.66;;;36.83;38.19
73332;BME280;61560;33.718;73.040;2022-08-23T10:56:44;93772.97;;;36.77;39.03
73332;BME280;61560;33.718;73.040;2022-08-23T10:59:21;93768.47;;;36.74;39.91
73332;BME280;61560;33.718;73.040;2022-08-23T11:02:17;93762.06;;;36.64;39.76
73332;BME280;61560;33.718;73.040;2022-08-23T11:05:16;93756.84;;;36.61;39.58
73332;BME280;61560;33.718;73.040;2022-08-23T11:08:07;93762.00;;;36.53;39.70
73332;BME280;61560;33.718;73.040;2022-08-23T11:16:04;93757.59;;;36.31;39.77
73332;BME280;61560;33.718;73.040;2022-08-23T11:18:47;93758.38;;;36.22;39.77
73332;BME280;61560;33.718;73.040;2022-08-23T11:40:09;93737.44;;;35.67;43.04
73332;BME280;61560;33.718;73.040;2022-08-23T11:48:20;93734.75;;;35.40;44.18
73332;BME280;61560;33.718;73.040;2022-08-23T11:59:07;93752.78;;;35.14;45.61
73332;BME280;61560;33.718;73.040;2022-08-23T12:01:39;93762.50;;;35.02;46.22
73332;BME280;61560;33.718;73.040;2022-08-23T12:04:09;93764.47;;;34.99;46.43
73332;BME280;61560;33.718;73.040;2022-08-23T12:06:46;93761.31;;;34.95;46.67
73332;BME280;61560;33.718;73.040;2022-08-23T12:14:47;93775.09;;;34.99;46.67
73332;BME280;61560;33.718;73.040;2022-08-23T12:25:27;93780.81;;;34.99;45.69
73332;BME280;61560;33.718;73.040;2022-08-23T12:28:15;93778.25;;;35.03;45.63
73332;BME280;61560;33.718;73.040;2022-08-23T12:31:02;93776.59;;;35.00;45.57
73332;BME280;61560;33.718;73.040;2022-08-23T12:36:45;93783.16;;;34.83;46.08
73332;BME280;61560;33.718;73.040;2022-08-23T12:42:10;93779.56;;;34.83;46.32
73332;BME280;61560;33.718;73.040;2022-08-23T12:44:42;93779.41;;;34.81;46.28
73332;BME280;61560;33.718;73.040;2022-08-23T12:47:18;93787.50;;;34.75;47.12
73332;BME280;61560;33.718;73.040;2022-08-23T12:50:07;93784.78;;;34.67;47.25
73332;BME280;61560;33.718;73.040;2022-08-23T12:52:37;93778.66;;;34.71;47.08
73332;BME280;61560;33.718;73.040;2022-08-23T12:55:16;93776.22;;;34.67;46.84
73332;BME280;61560;33.718;73.040;2022-08-23T12:57:51;93780.75;;;34.60;47.66
73332;BME280;61560;33.718;73.040;2022-08-23T14:01:21;93807.91;;;32.69;53.51
73332;BME280;61560;33.718;73.040;2022-08-23T14:03:47;93815.84;;;32.71;54.06
73332;BME280;61560;33.718;73.040;2022-08-23T14:06:14;93818.91;;;32.65;54.14
73332;BME280;61560;33.718;73.040;2022-08-23T14:08:41;93816.66;;;32.64;54.04
73332;BME280;61560;33.718;73.040;2022-08-23T14:11:07;93828.06;;;32.56;54.01
73332;BME280;61560;33.718;73.040;2022-08-23T14:13:34;93826.16;;;32.59;53.51
73332;BME280;61560;33.718;73.040;2022-08-23T14:16:05;93830.66;;;32.62;54.12
73332;BME280;61560;33.718;73.040;2022-08-23T14:18:33;93843.34;;;32.61;53.62
73332;BME280;61560;33.718;73.040;2022-08-23T14:21:02;93844.84;;;32.62;54.08
73332;BME280;61560;33.718;73.040;2022-08-23T14:23:29;93857.44;;;32.68;53.82
73332;BME280;61560;33.718;73.040;2022-08-23T14:25:56;93863.13;;;32.68;52.75
73332;BME280;61560;33.718;73.040;2022-08-23T14:28:27;93871.28;;;32.64;52.56
73332;BME280;61560;33.718;73.040;2022-08-23T14:30:55;93880.97;;;32.61;52.50
73332;BME280;61560;33.718;73.040;2022-08-23T14:33:22;93877.53;;;32.63;52.02
73332;BME280;61560;33.718;73.040;2022-08-23T14:35:49;93878.88;;;32.62;52.41
73332;BME280;61560;33.718;73.040;2022-08-23T14:38:17;93880.38;;;32.63;52.40
73332;BME280;61560;33.718;73.040;2022-08-23T14:40:53;93886.56;;;32.69;52.54
73332;BME280;61560;33.718;73.040;2022-08-23T14:43:21;93894.66;;;32.72;52.39
73332;BME280;61560;33.718;73.040;2022-08-23T14:45:47;93900.16;;;32.70;52.68
73332;BME280;61560;33.718;73.040;2022-08-23T14:48:14;93908.66;;;32.70;53.25
73332;BME280;61560;33.718;73.040;2022-08-23T14:50:41;93902.13;;;32.85;53.75
73332;BME280;61560;33.718;73.040;2022-08-23T14:53:08;93901.84;;;32.98;52.89
73332;BME280;61560;33.718;73.040;2022-08-23T14:55:35;93906.50;;;33.03;53.34
73332;BME280;61560;33.718;73.040;2022-08-23T14:58:02;93901.00;;;33.05;52.64
73332;BME280;61560;33.718;73.040;2022-08-23T15:00:30;93906.69;;;33.05;52.95
73332;BME280;61560;33.718;73.040;2022-08-23T15:02:57;93911.97;;;33.09;52.83
73332;BME280;61560;33.718;73.040;2022-08-23T15:05:24;93914.63;;;33.07;53.14
73332;BME280;61560;33.718;73.040;2022-08-23T15:07:52;93918.78;;;33.05;53.06
73332;BME280;61560;33.718;73.040;2022-08-23T15:10:18;93920.88;;;33.05;53.31
73332;BME280;61560;33.718;73.040;2022-08-23T15:12:45;93925.81;;;33.04;53.29
73332;BME280;61560;33.718;73.040;2022-08-23T15:15:16;93925.81;;;33.04;52.81
73332;BME280;61560;33.718;73.040;2022-08-23T15:17:48;93922.97;;;33.04;53.01
73332;BME280;61560;33.718;73.040;2022-08-23T15:20:22;93920.88;;;33.05;53.25
73332;BME280;61560;33.718;73.040;2022-08-23T15:22:50;93926.38;;;33.03;53.01
73332;BME280;61560;33.718;73.040;2022-08-23T15:25:17;93928.66;;;33.04;53.55
73332;BME280;61560;33.718;73.040;2022-08-23T15:27:45;93933.56;;;33.04;52.87
73332;BME280;61560;33.718;73.040;2022-08-23T15:30:13;93939.81;;;33.02;53.42
73332;BME280;61560;33.718;73.040;2022-08-23T15:32:43;93939.66;;;33.00;53.25
73332;BME280;61560;33.718;73.040;2022-08-23T15:35:10;93949.31;;;32.97;53.36
73332;BME280;61560;33.718;73.040;2022-08-23T15:37:37;93951.19;;;32.95;53.51
73332;BME280;61560;33.718;73.040;2022-08-23T15:40:05;93947.59;;;32.94;53.61
73332;BME280;61560;33.718;73.040;2022-08-23T15:42:32;93947.84;;;32.89;53.15
73332;BME280;61560;33.718;73.040;2022-08-23T15:44:59;93951.91;;;32.78;53.80
73332;BME280;61560;33.718;73.040;2022-08-23T15:47:34;93948.97;;;32.69;54.55
73332;BME280;61560;33.718;73.040;2022-08-23T15:50:03;93958.50;;;32.56;54.89
73332;BME280;61560;33.718;73.040;2022-08-23T15:52:30;93955.91;;;32.51;55.04
73332;BME280;61560;33.718;73.040;2022-08-23T15:54:57;93968.78;;;32.44;55.04
73332;BME280;61560;33.718;73.040;2022-08-23T15:57:25;93958.56;;;32.41;55.10
73332;BME280;61560;33.718;73.040;2022-08-23T15:59:54;93963.91;;;32.37;55.33
73332;BME280;61560;33.718;73.040;2022-08-23T16:02:20;93965.81;;;32.35;55.53
73332;BME280;61560;33.718;73.040;2022-08-23T16:04:47;93964.53;;;32.28;55.39
73332;BME280;61560;33.718;73.040;2022-08-23T16:07:16;93969.50;;;32.20;56.05
73332;BME280;61560;33.718;73.040;2022-08-23T16:09:43;93978.03;;;32.12;55.79
73332;BME280;61560;33.718;73.040;2022-08-23T16:12:10;93976.94;;;32.08;56.54
73332;BME280;61560;33.718;73.040;2022-08-23T16:14:36;93976.00;;;32.05;56.33
73332;BME280;61560;33.718;73.040;2022-08-23T16:17:04;93976.78;;;31.98;56.25
73332;BME280;61560;33.718;73.040;2022-08-23T16:19:32;93981.69;;;31.98;56.21
73332;BME280;61560;33.718;73.040;2022-08-23T16:21:59;93986.97;;;31.94;56.12
73332;BME280;61560;33.718;73.040;2022-08-23T16:24:29;93993.25;;;31.85;55.79
73332;BME280;61560;33.718;73.040;2022-08-23T16:26:56;93983.22;;;31.84;55.70
73332;BME280;61560;33.718;73.040;2022-08-23T16:29:23;93985.69;;;31.87;55.66
73332;BME280;61560;33.718;73.040;2022-08-23T16:31:50;93980.94;;;31.90;55.61
73332;BME280;61560;33.718;73.040;2022-08-23T16:34:18;93992.06;;;31.88;56.11
73332;BME280;61560;33.718;73.040;2022-08-23T16:36:49;93992.66;;;31.86;56.54
73332;BME280;61560;33.718;73.040;2022-08-23T16:39:20;93996.84;;;31.78;57.10
73332;BME280;61560;33.718;73.040;2022-08-23T16:41:48;93987.97;;;31.74;57.70
73332;BME280;61560;33.718;73.040;2022-08-23T16:44:15;93988.56;;;31.72;57.71
73332;BME280;61560;33.718;73.040;2022-08-23T16:46:42;93994.81;;;31.71;57.77
73332;BME280;61560;33.718;73.040;2022-08-23T16:49:11;93985.56;;;31.63;57.38
73332;BME280;61560;33.718;73.040;2022-08-23T16:51:38;93989.53;;;31.60;57.17
73332;BME280;61560;33.718;73.040;2022-08-23T16:54:06;93993.53;;;31.57;57.21
73332;BME280;61560;33.718;73.040;2022-08-23T16:56:35;93988.81;;;31.52;57.19
73332;BME280;61560;33.718;73.040;2022-08-23T16:59:07;93978.28;;;31.44;57.10
73332;BME280;61560;33.718;73.040;2022-08-23T17:01:50;93989.97;;;31.48;57.06
73332;BME280;61560;33.718;73.040;2022-08-23T17:04:19;93986.75;;;31.44;57.32
73332;BME280;61560;33.718;73.040;2022-08-23T17:06:50;93983.31;;;31.38;57.10
73332;BME280;61560;33.718;73.040;2022-08-23T17:09:21;93989.78;;;31.31;57.20